sensor_id;sensor_type;location;lat;lon;timestamp;temperature;humidity
63277;DHT22;49403;51.046;13.780;2022-09-29T00:00:30;10.50;72.50
63277;DHT22;49403;51.046;13.780;2022-09-29T00:01:00;10.50;72.30
63277;DHT22;49403;51.046;13.780;2022-09-29T00:01:34;10.40;71.70
63277;DHT22;49403;51.046;13.780;2022-09-29T00:02:05;10.50;72.40
63277;DHT22;49403;51.046;13.780;2022-09-29T00:02:36;10.50;72.40
63277;DHT22;49403;51.046;13.780;2022-09-29T00:03:07;10.50;72.50
63277;DHT22;49403;51.046;13.780;2022-09-29T00:03:38;10.50;72.50
63277;DHT22;49403;51.046;13.780;2022-09-29T00:04:10;10.50;72.40
63277;DHT22;49403;51.046;13.780;2022-09-29T00:04:40;11.40;73.40
63277;DHT22;49403;51.046;13.780;2022-09-29T00:05:11;10.10;72.40
63277;DHT22;49403;51.046;13.780;2022-09-29T00:05:49;11.30;73.50
63277;DHT22;49403;51.046;13.780;2022-09-29T00:06:21;10.50;72.20
63277;DHT22;49403;51.046;13.780;2022-09-29T00:06:52;10.50;72.20
63277;DHT22;49403;51.046;13.780;2022-09-29T00:07:23;10.60;72.90
63277;DHT22;49403;51.046;13.780;2022-09-29T00:07:54;10.50;72.70
63277;DHT22;49403;51.046;13.780;2022-09-29T00:08:29;10.90;73.20
63277;DHT22;49403;51.046;13.780;2022-09-29T00:09:00;10.50;72.20
63277;DHT22;49403;51.046;13.780;2022-09-29T00:09:31;11.00;73.10
63277;DHT22;49403;51.046;13.780;2022-09-29T00:10:02;10.50;72.70
63277;DHT22;49403;51.046;13.780;2022-09-29T00:10:34;10.50;72.10
63277;DHT22;49403;51.046;13.780;2022-09-29T00:11:12;10.60;72.70
63277;DHT22;49403;51.046;13.780;2022-09-29T00:11:43;10.60;72.00
63277;DHT22;49403;51.046;13.780;2022-09-29T00:12:14;10.60;72.60
63277;DHT22;49403;51.046;13.780;2022-09-29T00:12:45;10.10;71.80
63277;DHT22;49403;51.046;13.780;2022-09-29T00:13:17;10.60;72.60
63277;DHT22;49403;51.046;13.780;2022-09-29T00:13:48;10.60;72.50
63277;DHT22;49403;51.046;13.780;2022-09-29T00:14:19;10.60;71.90
63277;DHT22;49403;51.046;13.780;2022-09-29T00:14:50;10.60;72.30
63277;DHT22;49403;51.046;13.780;2022-09-29T00:15:21;8.80;71.10
63277;DHT22;49403;51.046;13.780;2022-09-29T00:15:59;9.20;72.10
63277;DHT22;49403;51.046;13.780;2022-09-29T00:16:31;11.00;72.10
63277;DHT22;49403;51.046;13.780;2022-09-29T00:17:02;10.60;72.30
63277;DHT22;49403;51.046;13.780;2022-09-29T00:17:33;10.60;72.20
63277;DHT22;49403;51.046;13.780;2022-09-29T00:18:04;10.60;71.70
63277;DHT22;49403;51.046;13.780;2022-09-29T00:18:35;10.60;72.10
63277;DHT22;49403;51.046;13.780;2022-09-29T00:19:06;9.30;72.00
63277;DHT22;49403;51.046;13.780;2022-09-29T00:19:37;10.60;72.00
63277;DHT22;49403;51.046;13.780;2022-09-29T00:20:08;10.60;72.30
63277;DHT22;49403;51.046;13.780;2022-09-29T00:20:39;10.60;72.30
63277;DHT22;49403;51.046;13.780;2022-09-29T00:21:13;10.60;72.00
63277;DHT22;49403;51.046;13.780;2022-09-29T00:21:44;10.60;71.60
63277;DHT22;49403;51.046;13.780;2022-09-29T00:22:15;10.60;71.80
63277;DHT22;49403;51.046;13.780;2022-09-29T00:22:49;10.60;72.00
63277;DHT22;49403;51.046;13.780;2022-09-29T00:23:23;10.60;71.60
63277;DHT22;49403;51.046;13.780;2022-09-29T00:23:54;10.40;71.50
63277;DHT22;49403;51.046;13.780;2022-09-29T00:24:25;10.60;72.20
63277;DHT22;49403;51.046;13.780;2022-09-29T00:24:56;10.30;71.80
63277;DHT22;49403;51.046;13.780;2022-09-29T00:25:28;10.60;72.20
63277;DHT22;49403;51.046;13.780;2022-09-29T00:26:17;10.60;71.70
63277;DHT22;49403;51.046;13.780;2022-09-29T00:26:48;10.60;71.60
63277;DHT22;49403;51.046;13.780;2022-09-29T00:27:19;10.50;71.70
63277;DHT22;49403;51.046;13.780;2022-09-29T00:27:50;10.50;72.30
63277;DHT22;49403;51.046;13.780;2022-09-29T00:28:21;10.60;72.40
63277;DHT22;49403;51.046;13.780;2022-09-29T00:28:56;10.50;72.10
63277;DHT22;49403;51.046;13.780;2022-09-29T00:29:27;10.50;71.70
63277;DHT22;49403;51.046;13.780;2022-09-29T00:29:58;8.60;71.70
63277;DHT22;49403;51.046;13.780;2022-09-29T00:30:29;10.50;72.10
63277;DHT22;49403;51.046;13.780;2022-09-29T00:31:01;10.50;72.30
63277;DHT22;49403;51.046;13.780;2022-09-29T00:31:32;10.50;71.60
63277;DHT22;49403;51.046;13.780;2022-09-29T00:32:03;11.60;73.20
63277;DHT22;49403;51.046;13.780;2022-09-29T00:32:34;10.50;72.10
63277;DHT22;49403;51.046;13.780;2022-09-29T00:33:05;11.60;73.20
63277;DHT22;49403;51.046;13.780;2022-09-29T00:33:36;10.50;72.10
63277;DHT22;49403;51.046;13.780;2022-09-29T00:34:07;10.50;71.60
63277;DHT22;49403;51.046;13.780;2022-09-29T00:34:38;10.50;71.90
63277;DHT22;49403;51.046;13.780;2022-09-29T00:35:09;10.50;72.10
63277;DHT22;49403;51.046;13.780;2022-09-29T00:35:40;10.60;72.10
63277;DHT22;49403;51.046;13.780;2022-09-29T00:36:14;10.50;72.00
63277;DHT22;49403;51.046;13.780;2022-09-29T00:36:45;10.50;71.40
63277;DHT22;49403;51.046;13.780;2022-09-29T00:37:16;10.50;72.00
63277;DHT22;49403;51.046;13.780;2022-09-29T00:37:47;10.40;72.00
63277;DHT22;49403;51.046;13.780;2022-09-29T00:38:18;10.50;72.20
63277;DHT22;49403;51.046;13.780;2022-09-29T00:38:50;12.10;73.70
63277;DHT22;49403;51.046;13.780;2022-09-29T00:39:24;10.50;71.60
63277;DHT22;49403;51.046;13.780;2022-09-29T00:39:55;11.30;72.90
63277;DHT22;49403;51.046;13.780;2022-09-29T00:40:26;10.50;72.00
63277;DHT22;49403;51.046;13.780;2022-09-29T00:40:57;10.50;71.80
63277;DHT22;49403;51.046;13.780;2022-09-29T00:41:31;10.90;71.60
63277;DHT22;49403;51.046;13.780;2022-09-29T00:42:03;10.50;71.30
63277;DHT22;49403;51.046;13.780;2022-09-29T00:42:34;10.50;72.10
63277;DHT22;49403;51.046;13.780;2022-09-29T00:43:22;10.50;71.90
63277;DHT22;49403;51.046;13.780;2022-09-29T00:43:59;10.50;71.40
63277;DHT22;49403;51.046;13.780;2022-09-29T00:45:23;9.20;71.10
63277;DHT22;49403;51.046;13.780;2022-09-29T00:45:54;10.40;72.00
63277;DHT22;49403;51.046;13.780;2022-09-29T00:47:14;10.40;71.40
63277;DHT22;49403;51.046;13.780;2022-09-29T00:48:06;10.30;71.60
63277;DHT22;49403;51.046;13.780;2022-09-29T00:48:41;10.30;71.40
63277;DHT22;49403;51.046;13.780;2022-09-29T00:50:10;10.30;71.40
63277;DHT22;49403;51.046;13.780;2022-09-29T00:50:48;10.30;71.60
63277;DHT22;49403;51.046;13.780;2022-09-29T00:51:20;11.20;72.50
63277;DHT22;49403;51.046;13.780;2022-09-29T00:52:21;10.20;71.80
63277;DHT22;49403;51.046;13.780;2022-09-29T00:52:55;10.20;71.40
63277;DHT22;49403;51.046;13.780;2022-09-29T00:53:30;10.10;71.80
63277;DHT22;49403;51.046;13.780;2022-09-29T00:54:02;10.20;72.80
63277;DHT22;49403;51.046;13.780;2022-09-29T00:54:47;10.10;72.10
63277;DHT22;49403;51.046;13.780;2022-09-29T00:56:00;10.20;72.60
63277;DHT22;49403;51.046;13.780;2022-09-29T00:56:32;10.10;71.80
63277;DHT22;49403;51.046;13.780;2022-09-29T00:57:06;10.10;71.80
63277;DHT22;49403;51.046;13.780;2022-09-29T00:57:51;10.20;71.90
63277;DHT22;49403;51.046;13.780;2022-09-29T00:58:31;10.20;72.00
63277;DHT22;49403;51.046;13.780;2022-09-29T00:59:07;10.20;72.00
63277;DHT22;49403;51.046;13.780;2022-09-29T00:59:46;10.10;72.50
63277;DHT22;49403;51.046;13.780;2022-09-29T01:00:18;12.20;74.00
63277;DHT22;49403;51.046;13.780;2022-09-29T01:00:49;10.10;72.40
63277;DHT22;49403;51.046;13.780;2022-09-29T01:01:22;10.10;72.50
63277;DHT22;49403;51.046;13.780;2022-09-29T01:01:53;10.20;71.90
63277;DHT22;49403;51.046;13.780;2022-09-29T01:02:24;10.20;73.10
63277;DHT22;49403;51.046;13.780;2022-09-29T01:03:07;10.20;71.70
63277;DHT22;49403;51.046;13.780;2022-09-29T01:03:44;8.40;71.10
63277;DHT22;49403;51.046;13.780;2022-09-29T01:04:17;10.20;71.70
63277;DHT22;49403;51.046;13.780;2022-09-29T01:04:50;12.30;73.70
63277;DHT22;49403;51.046;13.780;2022-09-29T01:05:29;10.20;71.60
63277;DHT22;49403;51.046;13.780;2022-09-29T01:06:11;10.30;71.80
63277;DHT22;49403;51.046;13.780;2022-09-29T01:06:46;10.00;71.40
63277;DHT22;49403;51.046;13.780;2022-09-29T01:07:21;10.20;71.70
63277;DHT22;49403;51.046;13.780;2022-09-29T01:07:52;10.20;71.70
63277;DHT22;49403;51.046;13.780;2022-09-29T01:09:01;10.20;72.30
63277;DHT22;49403;51.046;13.780;2022-09-29T01:09:34;10.20;71.60
63277;DHT22;49403;51.046;13.780;2022-09-29T01:10:07;10.20;71.50
63277;DHT22;49403;51.046;13.780;2022-09-29T01:10:39;10.20;71.90
63277;DHT22;49403;51.046;13.780;2022-09-29T01:11:11;10.20;71.50
63277;DHT22;49403;51.046;13.780;2022-09-29T01:11:42;10.20;71.60
63277;DHT22;49403;51.046;13.780;2022-09-29T01:12:14;10.20;72.00
63277;DHT22;49403;51.046;13.780;2022-09-29T01:12:46;10.20;72.00
63277;DHT22;49403;51.046;13.780;2022-09-29T01:13:18;10.10;71.40
63277;DHT22;49403;51.046;13.780;2022-09-29T01:13:50;10.10;71.50
63277;DHT22;49403;51.046;13.780;2022-09-29T01:14:21;10.10;71.40
63277;DHT22;49403;51.046;13.780;2022-09-29T01:14:53;10.10;72.10
63277;DHT22;49403;51.046;13.780;2022-09-29T01:15:24;10.10;71.70
63277;DHT22;49403;51.046;13.780;2022-09-29T01:15:59;10.10;71.70
63277;DHT22;49403;51.046;13.780;2022-09-29T01:16:30;10.20;72.50
63277;DHT22;49403;51.046;13.780;2022-09-29T01:17:02;10.10;71.80
63277;DHT22;49403;51.046;13.780;2022-09-29T01:17:33;10.10;71.70
63277;DHT22;49403;51.046;13.780;2022-09-29T01:18:04;10.20;71.90
63277;DHT22;49403;51.046;13.780;2022-09-29T01:18:36;10.10;71.80
63277;DHT22;49403;51.046;13.780;2022-09-29T01:19:15;10.20;71.70
63277;DHT22;49403;51.046;13.780;2022-09-29T01:20:02;10.70;72.20
63277;DHT22;49403;51.046;13.780;2022-09-29T01:20:38;10.10;71.20
63277;DHT22;49403;51.046;13.780;2022-09-29T01:22:05;10.00;72.30
63277;DHT22;49403;51.046;13.780;2022-09-29T01:24:51;9.90;73.50
63277;DHT22;49403;51.046;13.780;2022-09-29T01:26:49;9.70;72.80
63277;DHT22;49403;51.046;13.780;2022-09-29T01:29:41;9.40;74.20
63277;DHT22;49403;51.046;13.780;2022-09-29T01:33:17;9.40;73.70
63277;DHT22;49403;51.046;13.780;2022-09-29T01:35:11;7.80;72.50
63277;DHT22;49403;51.046;13.780;2022-09-29T01:36:44;9.40;74.90
63277;DHT22;49403;51.046;13.780;2022-09-29T01:38:28;9.30;74.60
63277;DHT22;49403;51.046;13.780;2022-09-29T01:39:26;10.20;74.20
63277;DHT22;49403;51.046;13.780;2022-09-29T01:40:08;9.20;74.10
63277;DHT22;49403;51.046;13.780;2022-09-29T01:40:52;9.20;74.20
63277;DHT22;49403;51.046;13.780;2022-09-29T01:41:35;9.20;74.40
63277;DHT22;49403;51.046;13.780;2022-09-29T01:42:16;9.10;74.40
63277;DHT22;49403;51.046;13.780;2022-09-29T01:42:53;9.20;74.90
63277;DHT22;49403;51.046;13.780;2022-09-29T01:43:34;9.10;74.50
63277;DHT22;49403;51.046;13.780;2022-09-29T01:45:48;9.10;74.80
63277;DHT22;49403;51.046;13.780;2022-09-29T01:46:47;9.10;75.30
63277;DHT22;49403;51.046;13.780;2022-09-29T01:47:27;9.10;75.00
63277;DHT22;49403;51.046;13.780;2022-09-29T01:48:07;9.10;75.30
63277;DHT22;49403;51.046;13.780;2022-09-29T01:48:45;9.10;75.30
63277;DHT22;49403;51.046;13.780;2022-09-29T01:49:20;9.00;75.50
63277;DHT22;49403;51.046;13.780;2022-09-29T01:49:59;7.50;74.00
63277;DHT22;49403;51.046;13.780;2022-09-29T01:50:38;8.00;74.50
63277;DHT22;49403;51.046;13.780;2022-09-29T01:51:14;9.10;75.50
63277;DHT22;49403;51.046;13.780;2022-09-29T01:51:55;9.10;75.40
63277;DHT22;49403;51.046;13.780;2022-09-29T01:52:32;9.10;75.10
63277;DHT22;49403;51.046;13.780;2022-09-29T01:53:10;9.10;75.40
63277;DHT22;49403;51.046;13.780;2022-09-29T01:53:51;9.10;75.50
63277;DHT22;49403;51.046;13.780;2022-09-29T01:54:38;10.30;75.50
63277;DHT22;49403;51.046;13.780;2022-09-29T01:55:19;8.70;75.10
63277;DHT22;49403;51.046;13.780;2022-09-29T01:55:54;9.10;75.20
63277;DHT22;49403;51.046;13.780;2022-09-29T01:57:22;9.10;76.00
63277;DHT22;49403;51.046;13.780;2022-09-29T01:58:06;7.90;74.40
63277;DHT22;49403;51.046;13.780;2022-09-29T01:58:52;9.20;75.20
63277;DHT22;49403;51.046;13.780;2022-09-29T01:59:30;9.10;75.10
63277;DHT22;49403;51.046;13.780;2022-09-29T02:00:09;9.10;75.60
63277;DHT22;49403;51.046;13.780;2022-09-29T02:00:47;9.10;75.50
63277;DHT22;49403;51.046;13.780;2022-09-29T02:01:23;9.30;75.70
63277;DHT22;49403;51.046;13.780;2022-09-29T02:01:59;9.10;75.70
63277;DHT22;49403;51.046;13.780;2022-09-29T02:03:42;9.10;75.40
63277;DHT22;49403;51.046;13.780;2022-09-29T02:04:31;9.10;75.60
63277;DHT22;49403;51.046;13.780;2022-09-29T02:05:03;9.00;75.60
63277;DHT22;49403;51.046;13.780;2022-09-29T02:05:47;9.00;75.80
63277;DHT22;49403;51.046;13.780;2022-09-29T02:06:24;9.00;75.60
63277;DHT22;49403;51.046;13.780;2022-09-29T02:07:05;9.00;76.00
63277;DHT22;49403;51.046;13.780;2022-09-29T02:07:40;9.00;75.70
63277;DHT22;49403;51.046;13.780;2022-09-29T02:08:16;9.00;76.10
63277;DHT22;49403;51.046;13.780;2022-09-29T02:08:53;9.30;76.30
63277;DHT22;49403;51.046;13.780;2022-09-29T02:09:28;9.10;75.80
63277;DHT22;49403;51.046;13.780;2022-09-29T02:10:44;9.40;76.40
63277;DHT22;49403;51.046;13.780;2022-09-29T02:11:05;9.10;75.80
63277;DHT22;49403;51.046;13.780;2022-09-29T02:11:38;9.10;76.10
63277;DHT22;49403;51.046;13.780;2022-09-29T02:12:13;9.10;76.20
63277;DHT22;49403;51.046;13.780;2022-09-29T02:12:48;9.10;76.20
63277;DHT22;49403;51.046;13.780;2022-09-29T02:13:20;9.90;76.90
63277;DHT22;49403;51.046;13.780;2022-09-29T02:14:42;9.20;75.80
63277;DHT22;49403;51.046;13.780;2022-09-29T02:15:20;9.20;76.00
63277;DHT22;49403;51.046;13.780;2022-09-29T02:15:54;9.20;75.90
63277;DHT22;49403;51.046;13.780;2022-09-29T02:16:31;9.60;76.20
63277;DHT22;49403;51.046;13.780;2022-09-29T02:17:10;9.40;76.10
63277;DHT22;49403;51.046;13.780;2022-09-29T02:17:44;10.90;76.20
63277;DHT22;49403;51.046;13.780;2022-09-29T02:18:21;9.30;75.60
63277;DHT22;49403;51.046;13.780;2022-09-29T02:19:04;8.40;74.70
63277;DHT22;49403;51.046;13.780;2022-09-29T02:19:37;9.40;75.20
63277;DHT22;49403;51.046;13.780;2022-09-29T02:20:11;9.40;75.40
63277;DHT22;49403;51.046;13.780;2022-09-29T02:20:42;9.40;75.40
63277;DHT22;49403;51.046;13.780;2022-09-29T02:21:12;9.40;75.70
63277;DHT22;49403;51.046;13.780;2022-09-29T02:21:43;9.50;75.70
63277;DHT22;49403;51.046;13.780;2022-09-29T02:22:14;9.50;75.60
63277;DHT22;49403;51.046;13.780;2022-09-29T02:22:46;9.00;74.50
63277;DHT22;49403;51.046;13.780;2022-09-29T02:23:17;7.80;73.90
63277;DHT22;49403;51.046;13.780;2022-09-29T02:23:48;9.60;75.40
63277;DHT22;49403;51.046;13.780;2022-09-29T02:24:21;9.80;74.90
63277;DHT22;49403;51.046;13.780;2022-09-29T02:24:53;9.60;75.40
63277;DHT22;49403;51.046;13.780;2022-09-29T02:25:25;9.70;74.70
63277;DHT22;49403;51.046;13.780;2022-09-29T02:25:57;8.50;73.80
63277;DHT22;49403;51.046;13.780;2022-09-29T02:26:32;9.70;74.40
63277;DHT22;49403;51.046;13.780;2022-09-29T02:27:05;9.70;74.30
63277;DHT22;49403;51.046;13.780;2022-09-29T02:27:36;9.60;74.60
63277;DHT22;49403;51.046;13.780;2022-09-29T02:28:08;10.80;74.20
63277;DHT22;49403;51.046;13.780;2022-09-29T02:28:41;9.70;74.30
63277;DHT22;49403;51.046;13.780;2022-09-29T02:29:12;9.60;74.10
63277;DHT22;49403;51.046;13.780;2022-09-29T02:29:44;9.60;74.20
63277;DHT22;49403;51.046;13.780;2022-09-29T02:30:15;9.60;74.60
63277;DHT22;49403;51.046;13.780;2022-09-29T02:30:49;9.60;74.10
63277;DHT22;49403;51.046;13.780;2022-09-29T02:31:20;9.60;74.20
63277;DHT22;49403;51.046;13.780;2022-09-29T02:31:51;9.60;74.60
63277;DHT22;49403;51.046;13.780;2022-09-29T02:32:24;9.60;74.30
63277;DHT22;49403;51.046;13.780;2022-09-29T02:32:55;9.60;74.30
63277;DHT22;49403;51.046;13.780;2022-09-29T02:33:26;9.60;74.50
63277;DHT22;49403;51.046;13.780;2022-09-29T02:33:57;9.50;74.60
63277;DHT22;49403;51.046;13.780;2022-09-29T02:34:30;9.60;74.10
63277;DHT22;49403;51.046;13.780;2022-09-29T02:35:05;9.60;74.10
63277;DHT22;49403;51.046;13.780;2022-09-29T02:35:56;9.60;74.10
63277;DHT22;49403;51.046;13.780;2022-09-29T02:36:57;9.50;74.10
63277;DHT22;49403;51.046;13.780;2022-09-29T02:37:34;10.40;74.10
63277;DHT22;49403;51.046;13.780;2022-09-29T02:38:21;9.30;74.50
63277;DHT22;49403;51.046;13.780;2022-09-29T02:41:55;11.10;75.40
63277;DHT22;49403;51.046;13.780;2022-09-29T02:44:32;9.10;75.60
63277;DHT22;49403;51.046;13.780;2022-09-29T02:46:44;9.00;75.00
63277;DHT22;49403;51.046;13.780;2022-09-29T02:55:05;9.00;75.80
63277;DHT22;49403;51.046;13.780;2022-09-29T02:55:43;9.00;75.90
63277;DHT22;49403;51.046;13.780;2022-09-29T02:56:45;9.10;76.30
63277;DHT22;49403;51.046;13.780;2022-09-29T02:57:34;9.10;75.80
63277;DHT22;49403;51.046;13.780;2022-09-29T02:58:19;9.10;75.80
63277;DHT22;49403;51.046;13.780;2022-09-29T02:58:58;9.10;76.10
63277;DHT22;49403;51.046;13.780;2022-09-29T03:00:09;9.10;76.60
63277;DHT22;49403;51.046;13.780;2022-09-29T03:00:41;9.10;76.10
63277;DHT22;49403;51.046;13.780;2022-09-29T03:01:14;9.10;76.20
63277;DHT22;49403;51.046;13.780;2022-09-29T03:01:48;10.10;76.50
63277;DHT22;49403;51.046;13.780;2022-09-29T03:02:26;9.80;76.60
63277;DHT22;49403;51.046;13.780;2022-09-29T03:02:57;9.30;76.10
63277;DHT22;49403;51.046;13.780;2022-09-29T03:03:28;9.30;76.40
63277;DHT22;49403;51.046;13.780;2022-09-29T03:03:59;9.50;76.60
63277;DHT22;49403;51.046;13.780;2022-09-29T03:04:30;10.80;76.30
63277;DHT22;49403;51.046;13.780;2022-09-29T03:05:03;9.50;76.40
63277;DHT22;49403;51.046;13.780;2022-09-29T03:05:34;9.40;75.70
63277;DHT22;49403;51.046;13.780;2022-09-29T03:06:05;10.40;75.80
63277;DHT22;49403;51.046;13.780;2022-09-29T03:06:36;9.60;76.10
63277;DHT22;49403;51.046;13.780;2022-09-29T03:07:07;8.70;75.20
63277;DHT22;49403;51.046;13.780;2022-09-29T03:07:38;9.70;76.00
63277;DHT22;49403;51.046;13.780;2022-09-29T03:08:09;9.70;75.80
63277;DHT22;49403;51.046;13.780;2022-09-29T03:08:40;9.80;75.80
63277;DHT22;49403;51.046;13.780;2022-09-29T03:09:10;9.90;75.60
63277;DHT22;49403;51.046;13.780;2022-09-29T03:09:41;10.00;74.40
63277;DHT22;49403;51.046;13.780;2022-09-29T03:10:14;9.90;75.30
63277;DHT22;49403;51.046;13.780;2022-09-29T03:10:45;10.20;73.80
63277;DHT22;49403;51.046;13.780;2022-09-29T03:11:16;10.00;74.00
63277;DHT22;49403;51.046;13.780;2022-09-29T03:11:47;10.00;73.90
63277;DHT22;49403;51.046;13.780;2022-09-29T03:12:18;10.70;74.20
63277;DHT22;49403;51.046;13.780;2022-09-29T03:12:49;10.80;74.60
63277;DHT22;49403;51.046;13.780;2022-09-29T03:13:20;10.10;73.70
63277;DHT22;49403;51.046;13.780;2022-09-29T03:13:50;10.10;73.40
63277;DHT22;49403;51.046;13.780;2022-09-29T03:14:21;10.10;73.40
63277;DHT22;49403;51.046;13.780;2022-09-29T03:14:52;10.20;73.30
63277;DHT22;49403;51.046;13.780;2022-09-29T03:15:23;10.20;73.20
63277;DHT22;49403;51.046;13.780;2022-09-29T03:15:54;10.20;73.10
63277;DHT22;49403;51.046;13.780;2022-09-29T03:16:25;10.20;73.10
63277;DHT22;49403;51.046;13.780;2022-09-29T03:16:56;10.20;72.80
63277;DHT22;49403;51.046;13.780;2022-09-29T03:17:27;10.20;73.70
63277;DHT22;49403;51.046;13.780;2022-09-29T03:17:58;10.20;72.70
63277;DHT22;49403;51.046;13.780;2022-09-29T03:18:28;10.30;72.70
63277;DHT22;49403;51.046;13.780;2022-09-29T03:18:59;10.30;72.70
63277;DHT22;49403;51.046;13.780;2022-09-29T03:19:30;10.20;72.90
63277;DHT22;49403;51.046;13.780;2022-09-29T03:20:01;10.20;72.60
63277;DHT22;49403;51.046;13.780;2022-09-29T03:20:32;10.20;72.80
63277;DHT22;49403;51.046;13.780;2022-09-29T03:21:03;10.90;73.20
63277;DHT22;49403;51.046;13.780;2022-09-29T03:21:34;10.20;72.00
63277;DHT22;49403;51.046;13.780;2022-09-29T03:22:05;10.20;72.40
63277;DHT22;49403;51.046;13.780;2022-09-29T03:22:36;10.20;73.10
63277;DHT22;49403;51.046;13.780;2022-09-29T03:23:07;8.50;71.90
63277;DHT22;49403;51.046;13.780;2022-09-29T03:23:38;10.20;72.40
63277;DHT22;49403;51.046;13.780;2022-09-29T03:24:09;10.30;72.70
63277;DHT22;49403;51.046;13.780;2022-09-29T03:24:40;10.30;72.50
63277;DHT22;49403;51.046;13.780;2022-09-29T03:25:11;10.30;72.60
63277;DHT22;49403;51.046;13.780;2022-09-29T03:25:44;10.30;72.10
63277;DHT22;49403;51.046;13.780;2022-09-29T03:26:14;10.20;72.30
63277;DHT22;49403;51.046;13.780;2022-09-29T03:26:45;10.00;72.20
63277;DHT22;49403;51.046;13.780;2022-09-29T03:27:16;10.30;72.50
63277;DHT22;49403;51.046;13.780;2022-09-29T03:27:47;10.30;72.00
63277;DHT22;49403;51.046;13.780;2022-09-29T03:28:19;10.30;73.10
63277;DHT22;49403;51.046;13.780;2022-09-29T03:28:51;10.60;72.60
63277;DHT22;49403;51.046;13.780;2022-09-29T03:29:22;10.30;71.80
63277;DHT22;49403;51.046;13.780;2022-09-29T03:29:52;10.30;72.40
63277;DHT22;49403;51.046;13.780;2022-09-29T03:30:23;10.30;72.30
63277;DHT22;49403;51.046;13.780;2022-09-29T03:30:54;10.30;72.40
63277;DHT22;49403;51.046;13.780;2022-09-29T03:31:25;12.10;74.20
63277;DHT22;49403;51.046;13.780;2022-09-29T03:31:58;10.40;72.40
63277;DHT22;49403;51.046;13.780;2022-09-29T03:32:29;10.40;71.90
63277;DHT22;49403;51.046;13.780;2022-09-29T03:33:00;12.10;74.10
63277;DHT22;49403;51.046;13.780;2022-09-29T03:33:31;10.40;72.40
63277;DHT22;49403;51.046;13.780;2022-09-29T03:34:02;10.70;72.60
63277;DHT22;49403;51.046;13.780;2022-09-29T03:34:33;10.40;72.30
63277;DHT22;49403;51.046;13.780;2022-09-29T03:35:04;10.40;72.00
63277;DHT22;49403;51.046;13.780;2022-09-29T03:35:35;10.40;71.80
63277;DHT22;49403;51.046;13.780;2022-09-29T03:36:07;10.40;72.40
63277;DHT22;49403;51.046;13.780;2022-09-29T03:36:44;11.40;72.90
63277;DHT22;49403;51.046;13.780;2022-09-29T03:37:14;11.60;73.50
63277;DHT22;49403;51.046;13.780;2022-09-29T03:37:45;10.50;72.50
63277;DHT22;49403;51.046;13.780;2022-09-29T03:38:16;10.50;72.30
63277;DHT22;49403;51.046;13.780;2022-09-29T03:38:47;10.50;72.30
63277;DHT22;49403;51.046;13.780;2022-09-29T03:39:18;10.60;72.40
63277;DHT22;49403;51.046;13.780;2022-09-29T03:39:50;10.60;72.40
63277;DHT22;49403;51.046;13.780;2022-09-29T03:40:21;10.20;72.50
63277;DHT22;49403;51.046;13.780;2022-09-29T03:40:51;10.60;72.20
63277;DHT22;49403;51.046;13.780;2022-09-29T03:41:22;11.10;72.50
63277;DHT22;49403;51.046;13.780;2022-09-29T03:41:53;10.70;72.00
63277;DHT22;49403;51.046;13.780;2022-09-29T03:42:24;10.70;71.40
63277;DHT22;49403;51.046;13.780;2022-09-29T03:42:57;10.70;71.90
63277;DHT22;49403;51.046;13.780;2022-09-29T03:43:28;11.30;72.30
63277;DHT22;49403;51.046;13.780;2022-09-29T03:43:59;10.80;71.40
63277;DHT22;49403;51.046;13.780;2022-09-29T03:44:30;10.80;71.80
63277;DHT22;49403;51.046;13.780;2022-09-29T03:45:01;10.60;71.50
63277;DHT22;49403;51.046;13.780;2022-09-29T03:45:32;11.20;71.80
63277;DHT22;49403;51.046;13.780;2022-09-29T03:46:03;10.90;71.70
63277;DHT22;49403;51.046;13.780;2022-09-29T03:46:33;10.90;71.70
63277;DHT22;49403;51.046;13.780;2022-09-29T03:47:04;10.60;71.10
63277;DHT22;49403;51.046;13.780;2022-09-29T03:47:35;10.90;71.50
63277;DHT22;49403;51.046;13.780;2022-09-29T03:48:06;11.00;71.40
63277;DHT22;49403;51.046;13.780;2022-09-29T03:48:37;11.00;71.20
63277;DHT22;49403;51.046;13.780;2022-09-29T03:49:12;11.00;71.20
63277;DHT22;49403;51.046;13.780;2022-09-29T03:49:43;11.10;70.80
63277;DHT22;49403;51.046;13.780;2022-09-29T03:50:14;11.00;71.00
63277;DHT22;49403;51.046;13.780;2022-09-29T03:50:48;11.00;71.00
63277;DHT22;49403;51.046;13.780;2022-09-29T03:51:19;11.00;70.50
63277;DHT22;49403;51.046;13.780;2022-09-29T03:51:50;11.10;70.60
63277;DHT22;49403;51.046;13.780;2022-09-29T03:52:22;11.10;71.00
63277;DHT22;49403;51.046;13.780;2022-09-29T03:52:52;11.80;72.40
63277;DHT22;49403;51.046;13.780;2022-09-29T03:53:23;10.10;69.80
63277;DHT22;49403;51.046;13.780;2022-09-29T03:53:54;11.10;70.70
63277;DHT22;49403;51.046;13.780;2022-09-29T03:54:25;11.10;70.50
63277;DHT22;49403;51.046;13.780;2022-09-29T03:54:57;11.10;70.40
63277;DHT22;49403;51.046;13.780;2022-09-29T03:55:27;11.10;70.30
63277;DHT22;49403;51.046;13.780;2022-09-29T03:55:58;12.80;71.90
63277;DHT22;49403;51.046;13.780;2022-09-29T03:56:29;10.00;69.10
63277;DHT22;49403;51.046;13.780;2022-09-29T03:57:00;11.20;70.20
63277;DHT22;49403;51.046;13.780;2022-09-29T03:57:31;11.10;70.10
63277;DHT22;49403;51.046;13.780;2022-09-29T03:58:02;11.10;70.00
63277;DHT22;49403;51.046;13.780;2022-09-29T03:58:33;11.10;70.10
63277;DHT22;49403;51.046;13.780;2022-09-29T03:59:05;12.00;71.00
63277;DHT22;49403;51.046;13.780;2022-09-29T03:59:37;11.10;69.80
63277;DHT22;49403;51.046;13.780;2022-09-29T04:00:09;11.10;70.30
63277;DHT22;49403;51.046;13.780;2022-09-29T04:00:40;12.50;71.30
63277;DHT22;49403;51.046;13.780;2022-09-29T04:01:11;11.10;70.20
63277;DHT22;49403;51.046;13.780;2022-09-29T04:01:41;11.10;70.20
63277;DHT22;49403;51.046;13.780;2022-09-29T04:02:13;11.20;70.20
63277;DHT22;49403;51.046;13.780;2022-09-29T04:02:47;12.10;71.00
63277;DHT22;49403;51.046;13.780;2022-09-29T04:03:18;9.70;69.60
63277;DHT22;49403;51.046;13.780;2022-09-29T04:03:49;11.10;69.70
63277;DHT22;49403;51.046;13.780;2022-09-29T04:04:20;11.10;70.20
63277;DHT22;49403;51.046;13.780;2022-09-29T04:04:51;11.60;70.60
63277;DHT22;49403;51.046;13.780;2022-09-29T04:05:22;11.10;70.20
63277;DHT22;49403;51.046;13.780;2022-09-29T04:05:53;11.10;70.20
63277;DHT22;49403;51.046;13.780;2022-09-29T04:06:24;11.10;70.00
63277;DHT22;49403;51.046;13.780;2022-09-29T04:06:54;11.10;70.10
63277;DHT22;49403;51.046;13.780;2022-09-29T04:07:25;11.10;69.90
63277;DHT22;49403;51.046;13.780;2022-09-29T04:07:56;11.20;70.10